首页
METAR-TAF:

METAR-TAF

机场 :

Spirit of St Louis Airport

圣路易斯, 密蘇里州, 美国

纬度: 38-39-26N, 经度: 090-39-21W, 海拔: 141米

当前天气观测

该预报发布于2小时和8分钟前的02:54 UTC
风速4节,风向东转东北
温度 3°C
湿度 93%
气压 1004 hPa
能見度: 4.8公里
阴天层高于400英尺
轻雾

METAR: KSUS 260254Z AUTO 06004KT 3SM BR OVC004 03/02 A2965 RMK AO2 SLP046 T00280022 51006

时间: 23:02 (05:02 UTC)

预报

该预报发布于3小时和6分钟前的01:56 UTC
预报有效从26日的 02点(UTC)到 26日的 24点(UTC)
风速6节,风向东转东北
能見度: 4.8公里
阴天层高于500英尺
轻雾, 附近有阵雨
从 26日的 0400点(UTC)
风速5节,风向多变
能見度: 6.4公里
阴天层高于400英尺
轻雾
从 26日的 1500点(UTC)
风速10节,风向西
能見度: 10公里
阴天层高于300英尺
从 26日的 2100点(UTC)
风速10节,风向西北
能見度: 10公里
多云层高于1500英尺

TAF: KSUS 260156Z 2602/2624 07006KT 3SM BR VCSH OVC005 FM260400 VRB05KT 4SM BR OVC004 FM261500 28010KT P6SM OVC003 FM262100 31010KT P6SM BKN015

超过4000个机场的气象观测和天气预报(METAR&TAF报告)。

可查询的气象台以黄色和红色小点在地图上表示。

将鼠标移到小点上方,可查看气象台名称。

然后点击查看天气观测和预报。

如需切换地图:点击带黑十字的绿色按钮放大地图;点击带横线的绿色按钮缩小地图;或者点击绿色箭头查看邻近地区的地图。


METAR-TAF: